sensor_id;sensor_type;location;lat;lon;timestamp;pressure;altitude;pressure_sealevel;temperature;humidity
37206;BME280;23099;42.636;23.198;2023-07-22T00:01:34;92039.66;;;23.00;63.79
37206;BME280;23099;42.636;23.198;2023-07-22T00:04:02;92040.41;;;23.01;64.88
37206;BME280;23099;42.636;23.198;2023-07-22T00:06:29;92045.88;;;23.01;65.21
37206;BME280;23099;42.636;23.198;2023-07-22T00:08:56;92039.13;;;22.92;66.90
37206;BME280;23099;42.636;23.198;2023-07-22T00:11:23;92038.22;;;22.96;66.83
37206;BME280;23099;42.636;23.198;2023-07-22T00:13:52;92043.59;;;22.86;65.43
37206;BME280;23099;42.636;23.198;2023-07-22T00:16:19;92051.72;;;22.74;65.11
37206;BME280;23099;42.636;23.198;2023-07-22T00:18:46;92046.97;;;22.78;66.58
37206;BME280;23099;42.636;23.198;2023-07-22T00:21:13;92050.47;;;22.78;67.19
37206;BME280;23099;42.636;23.198;2023-07-22T00:23:40;92055.97;;;22.75;66.75
37206;BME280;23099;42.636;23.198;2023-07-22T00:26:07;92060.09;;;22.67;67.73
37206;BME280;23099;42.636;23.198;2023-07-22T00:28:34;92057.28;;;22.70;68.83
37206;BME280;23099;42.636;23.198;2023-07-22T00:31:03;92052.25;;;22.69;70.59
37206;BME280;23099;42.636;23.198;2023-07-22T00:33:30;92058.13;;;22.67;70.69
37206;BME280;23099;42.636;23.198;2023-07-22T00:35:57;92061.53;;;22.58;71.11
37206;BME280;23099;42.636;23.198;2023-07-22T00:38:24;92059.00;;;22.51;71.45
37206;BME280;23099;42.636;23.198;2023-07-22T00:40:52;92057.16;;;22.48;72.16
37206;BME280;23099;42.636;23.198;2023-07-22T00:43:19;92055.97;;;22.49;72.62
37206;BME280;23099;42.636;23.198;2023-07-22T00:45:45;92066.84;;;22.49;72.12
37206;BME280;23099;42.636;23.198;2023-07-22T00:48:14;92065.19;;;22.52;72.06
37206;BME280;23099;42.636;23.198;2023-07-22T00:50:43;92065.19;;;22.52;72.90
37206;BME280;23099;42.636;23.198;2023-07-22T00:53:10;92070.88;;;22.57;73.04
37206;BME280;23099;42.636;23.198;2023-07-22T00:55:39;92070.56;;;22.55;72.62
37206;BME280;23099;42.636;23.198;2023-07-22T00:58:06;92070.88;;;22.57;72.63
37206;BME280;23099;42.636;23.198;2023-07-22T01:00:32;92073.28;;;22.55;72.58
37206;BME280;23099;42.636;23.198;2023-07-22T01:02:59;92077.94;;;22.42;73.04
37206;BME280;23099;42.636;23.198;2023-07-22T01:05:28;92065.09;;;22.43;72.19
37206;BME280;23099;42.636;23.198;2023-07-22T01:07:54;92067.72;;;22.46;73.30
37206;BME280;23099;42.636;23.198;2023-07-22T01:10:22;92066.41;;;22.51;72.33
37206;BME280;23099;42.636;23.198;2023-07-22T01:12:48;92056.59;;;22.53;73.43
37206;BME280;23099;42.636;23.198;2023-07-22T01:15:17;92051.38;;;22.46;72.95
37206;BME280;23099;42.636;23.198;2023-07-22T01:17:44;92054.28;;;22.39;74.36
37206;BME280;23099;42.636;23.198;2023-07-22T01:20:14;92064.31;;;22.42;74.72
37206;BME280;23099;42.636;23.198;2023-07-22T01:22:50;92064.53;;;22.35;74.61
37206;BME280;23099;42.636;23.198;2023-07-22T01:25:19;92062.22;;;22.21;74.79
37206;BME280;23099;42.636;23.198;2023-07-22T01:27:47;92067.06;;;22.13;75.27
37206;BME280;23099;42.636;23.198;2023-07-22T01:30:15;92056.06;;;22.04;75.71
37206;BME280;23099;42.636;23.198;2023-07-22T01:32:42;92057.34;;;22.00;76.04
37206;BME280;23099;42.636;23.198;2023-07-22T01:35:09;92057.50;;;21.93;76.63
37206;BME280;23099;42.636;23.198;2023-07-22T01:37:36;92050.22;;;21.90;77.03
37206;BME280;23099;42.636;23.198;2023-07-22T01:40:05;92051.91;;;21.83;77.17
37206;BME280;23099;42.636;23.198;2023-07-22T01:42:37;92045.28;;;21.84;77.44
37206;BME280;23099;42.636;23.198;2023-07-22T01:45:05;92041.56;;;21.78;78.00
37206;BME280;23099;42.636;23.198;2023-07-22T01:47:33;92044.22;;;21.66;78.68
37206;BME280;23099;42.636;23.198;2023-07-22T01:50:02;92041.78;;;21.55;79.06
37206;BME280;23099;42.636;23.198;2023-07-22T01:52:29;92036.19;;;21.46;79.65
37206;BME280;23099;42.636;23.198;2023-07-22T01:54:56;92035.94;;;21.40;79.76
37206;BME280;23099;42.636;23.198;2023-07-22T01:57:24;92034.41;;;21.39;79.73
37206;BME280;23099;42.636;23.198;2023-07-22T01:59:51;92034.81;;;21.38;79.72
37206;BME280;23099;42.636;23.198;2023-07-22T02:02:18;92033.63;;;21.39;79.75
37206;BME280;23099;42.636;23.198;2023-07-22T02:04:45;92032.78;;;21.42;79.73
37206;BME280;23099;42.636;23.198;2023-07-22T02:07:12;92036.44;;;21.35;79.57
37206;BME280;23099;42.636;23.198;2023-07-22T02:09:39;92028.38;;;21.32;79.66
37206;BME280;23099;42.636;23.198;2023-07-22T02:12:07;92029.66;;;21.27;80.21
37206;BME280;23099;42.636;23.198;2023-07-22T02:14:35;92025.84;;;21.25;80.33
37206;BME280;23099;42.636;23.198;2023-07-22T02:17:03;92027.69;;;21.28;79.78
37206;BME280;23099;42.636;23.198;2023-07-22T02:19:29;92028.53;;;21.25;80.07
37206;BME280;23099;42.636;23.198;2023-07-22T02:21:56;92024.41;;;21.20;79.60
37206;BME280;23099;42.636;23.198;2023-07-22T02:24:23;92024.13;;;21.14;80.79
37206;BME280;23099;42.636;23.198;2023-07-22T02:26:49;92027.19;;;21.16;80.71
37206;BME280;23099;42.636;23.198;2023-07-22T02:29:16;92017.50;;;21.15;80.67
37206;BME280;23099;42.636;23.198;2023-07-22T02:31:46;92027.69;;;21.11;81.12
37206;BME280;23099;42.636;23.198;2023-07-22T02:34:13;92025.56;;;21.03;81.52
37206;BME280;23099;42.636;23.198;2023-07-22T02:36:39;92033.53;;;20.94;82.22
37206;BME280;23099;42.636;23.198;2023-07-22T02:39:06;92030.31;;;20.99;82.27
37206;BME280;23099;42.636;23.198;2023-07-22T02:41:35;92029.28;;;20.93;82.64
37206;BME280;23099;42.636;23.198;2023-07-22T02:44:02;92028.00;;;20.97;82.49
37206;BME280;23099;42.636;23.198;2023-07-22T02:46:29;92033.44;;;20.97;82.66
37206;BME280;23099;42.636;23.198;2023-07-22T02:48:58;92033.28;;;21.04;82.26
37206;BME280;23099;42.636;23.198;2023-07-22T02:51:25;92041.75;;;21.06;81.94
37206;BME280;23099;42.636;23.198;2023-07-22T02:53:52;92038.97;;;20.94;82.04
37206;BME280;23099;42.636;23.198;2023-07-22T02:56:18;92035.81;;;20.95;81.99
37206;BME280;23099;42.636;23.198;2023-07-22T02:58:45;92031.75;;;20.87;81.77
37206;BME280;23099;42.636;23.198;2023-07-22T03:01:15;92039.22;;;20.83;82.70
37206;BME280;23099;42.636;23.198;2023-07-22T03:03:42;92037.25;;;20.83;82.73
37206;BME280;23099;42.636;23.198;2023-07-22T03:06:13;92035.59;;;20.90;82.22
37206;BME280;23099;42.636;23.198;2023-07-22T03:08:40;92054.34;;;20.84;81.72
37206;BME280;23099;42.636;23.198;2023-07-22T03:11:06;92047.03;;;20.81;82.29
37206;BME280;23099;42.636;23.198;2023-07-22T03:13:33;92039.28;;;20.79;82.42
37206;BME280;23099;42.636;23.198;2023-07-22T03:16:00;92033.34;;;20.68;82.82
37206;BME280;23099;42.636;23.198;2023-07-22T03:18:29;92039.00;;;20.58;83.53
37206;BME280;23099;42.636;23.198;2023-07-22T03:20:56;92036.66;;;20.60;83.87
37206;BME280;23099;42.636;23.198;2023-07-22T03:23:24;92038.50;;;20.46;84.37
37206;BME280;23099;42.636;23.198;2023-07-22T03:25:50;92042.53;;;20.38;84.97
37206;BME280;23099;42.636;23.198;2023-07-22T03:28:17;92043.72;;;20.37;85.42
37206;BME280;23099;42.636;23.198;2023-07-22T03:30:44;92047.75;;;20.29;85.74
37206;BME280;23099;42.636;23.198;2023-07-22T03:33:10;92046.50;;;20.14;86.41
37206;BME280;23099;42.636;23.198;2023-07-22T03:35:37;92053.81;;;20.17;86.76
37206;BME280;23099;42.636;23.198;2023-07-22T03:38:04;92045.66;;;20.17;86.90
37206;BME280;23099;42.636;23.198;2023-07-22T03:40:35;92064.09;;;20.26;86.96
37206;BME280;23099;42.636;23.198;2023-07-22T03:43:03;92072.16;;;20.29;87.20
37206;BME280;23099;42.636;23.198;2023-07-22T03:45:30;92060.47;;;20.32;86.84
37206;BME280;23099;42.636;23.198;2023-07-22T03:47:57;92068.22;;;20.34;87.37
37206;BME280;23099;42.636;23.198;2023-07-22T03:50:24;92068.94;;;20.34;87.34
37206;BME280;23099;42.636;23.198;2023-07-22T03:52:51;92068.63;;;20.32;87.00
37206;BME280;23099;42.636;23.198;2023-07-22T03:55:18;92075.28;;;20.28;87.11
37206;BME280;23099;42.636;23.198;2023-07-22T03:57:46;92069.66;;;20.19;87.66
37206;BME280;23099;42.636;23.198;2023-07-22T04:00:13;92078.66;;;20.16;88.08
37206;BME280;23099;42.636;23.198;2023-07-22T04:02:43;92077.25;;;20.07;88.65
37206;BME280;23099;42.636;23.198;2023-07-22T04:05:10;92079.53;;;19.89;89.87
37206;BME280;23099;42.636;23.198;2023-07-22T04:07:37;92077.03;;;19.98;90.13
37206;BME280;23099;42.636;23.198;2023-07-22T04:10:05;92075.03;;;20.02;90.39
37206;BME280;23099;42.636;23.198;2023-07-22T04:12:32;92073.16;;;19.99;90.14
37206;BME280;23099;42.636;23.198;2023-07-22T04:15:00;92078.16;;;20.01;90.20
37206;BME280;23099;42.636;23.198;2023-07-22T04:17:28;92075.66;;;20.10;90.23
37206;BME280;23099;42.636;23.198;2023-07-22T04:19:55;92073.22;;;20.16;90.09
37206;BME280;23099;42.636;23.198;2023-07-22T04:22:22;92071.13;;;20.23;89.75
37206;BME280;23099;42.636;23.198;2023-07-22T04:24:48;92083.78;;;20.30;89.80
37206;BME280;23099;42.636;23.198;2023-07-22T04:27:15;92080.94;;;20.37;90.02
37206;BME280;23099;42.636;23.198;2023-07-22T04:29:42;92086.75;;;20.35;90.26
37206;BME280;23099;42.636;23.198;2023-07-22T04:32:10;92091.53;;;20.31;90.71
37206;BME280;23099;42.636;23.198;2023-07-22T04:34:37;92095.22;;;20.41;91.10
37206;BME280;23099;42.636;23.198;2023-07-22T04:37:05;92091.16;;;20.49;91.08
37206;BME280;23099;42.636;23.198;2023-07-22T04:39:32;92092.97;;;20.56;91.01
37206;BME280;23099;42.636;23.198;2023-07-22T04:42:00;92090.19;;;20.59;91.31
37206;BME280;23099;42.636;23.198;2023-07-22T04:44:27;92097.06;;;20.64;90.85
37206;BME280;23099;42.636;23.198;2023-07-22T04:46:53;92086.53;;;20.66;91.83
37206;BME280;23099;42.636;23.198;2023-07-22T04:49:23;92101.09;;;20.75;91.04
37206;BME280;23099;42.636;23.198;2023-07-22T04:51:50;92096.75;;;20.78;90.87
37206;BME280;23099;42.636;23.198;2023-07-22T04:54:17;92096.69;;;20.81;90.24
37206;BME280;23099;42.636;23.198;2023-07-22T04:56:44;92098.13;;;20.86;90.14
37206;BME280;23099;42.636;23.198;2023-07-22T04:59:13;92103.41;;;20.93;89.65
37206;BME280;23099;42.636;23.198;2023-07-22T05:01:41;92102.22;;;20.94;89.61
37206;BME280;23099;42.636;23.198;2023-07-22T05:04:09;92110.28;;;20.98;90.05
37206;BME280;23099;42.636;23.198;2023-07-22T05:06:37;92108.41;;;20.95;89.77
37206;BME280;23099;42.636;23.198;2023-07-22T05:09:03;92117.25;;;20.99;89.89
37206;BME280;23099;42.636;23.198;2023-07-22T05:11:30;92114.41;;;21.06;90.01
37206;BME280;23099;42.636;23.198;2023-07-22T05:13:57;92111.25;;;21.07;90.44
37206;BME280;23099;42.636;23.198;2023-07-22T05:16:23;92113.19;;;21.07;90.65
37206;BME280;23099;42.636;23.198;2023-07-22T05:18:50;92116.59;;;21.11;91.09
37206;BME280;23099;42.636;23.198;2023-07-22T05:21:17;92115.69;;;21.17;91.24
37206;BME280;23099;42.636;23.198;2023-07-22T05:23:45;92109.44;;;21.21;91.46
37206;BME280;23099;42.636;23.198;2023-07-22T05:26:12;92110.63;;;21.20;89.47
37206;BME280;23099;42.636;23.198;2023-07-22T05:28:39;92113.16;;;21.27;89.35
37206;BME280;23099;42.636;23.198;2023-07-22T05:31:05;92107.13;;;21.35;90.38
37206;BME280;23099;42.636;23.198;2023-07-22T05:33:32;92106.69;;;21.37;88.12
37206;BME280;23099;42.636;23.198;2023-07-22T05:35:59;92100.06;;;21.38;88.78
37206;BME280;23099;42.636;23.198;2023-07-22T05:38:26;92115.69;;;21.50;87.13
37206;BME280;23099;42.636;23.198;2023-07-22T05:40:55;92109.41;;;21.53;87.43
37206;BME280;23099;42.636;23.198;2023-07-22T05:43:22;92108.66;;;21.52;87.70
37206;BME280;23099;42.636;23.198;2023-07-22T05:45:49;92114.50;;;21.67;88.02
37206;BME280;23099;42.636;23.198;2023-07-22T05:48:16;92119.03;;;21.74;89.62
37206;BME280;23099;42.636;23.198;2023-07-22T05:50:42;92125.72;;;21.85;88.37
37206;BME280;23099;42.636;23.198;2023-07-22T05:53:09;92111.06;;;21.96;86.22
37206;BME280;23099;42.636;23.198;2023-07-22T05:55:36;92111.69;;;22.03;86.18
37206;BME280;23099;42.636;23.198;2023-07-22T05:58:04;92119.22;;;22.12;87.68
37206;BME280;23099;42.636;23.198;2023-07-22T06:00:32;92115.72;;;22.11;85.57
37206;BME280;23099;42.636;23.198;2023-07-22T06:02:59;92129.38;;;22.24;86.10
37206;BME280;23099;42.636;23.198;2023-07-22T06:05:27;92120.28;;;22.31;85.45
37206;BME280;23099;42.636;23.198;2023-07-22T06:07:53;92129.88;;;22.35;85.72
37206;BME280;23099;42.636;23.198;2023-07-22T06:10:22;92128.50;;;22.43;85.59
37206;BME280;23099;42.636;23.198;2023-07-22T06:12:49;92143.13;;;22.49;85.21
37206;BME280;23099;42.636;23.198;2023-07-22T06:15:17;92142.06;;;22.60;83.18
37206;BME280;23099;42.636;23.198;2023-07-22T06:17:43;92148.72;;;22.71;83.15
37206;BME280;23099;42.636;23.198;2023-07-22T06:20:11;92141.19;;;22.63;81.38
37206;BME280;23099;42.636;23.198;2023-07-22T06:22:37;92151.88;;;22.70;82.59
37206;BME280;23099;42.636;23.198;2023-07-22T06:25:07;92158.09;;;22.70;82.66
37206;BME280;23099;42.636;23.198;2023-07-22T06:27:34;92160.72;;;22.74;82.72
37206;BME280;23099;42.636;23.198;2023-07-22T06:30:02;92158.34;;;22.76;82.34
37206;BME280;23099;42.636;23.198;2023-07-22T06:32:30;92164.16;;;22.78;81.94
37206;BME280;23099;42.636;23.198;2023-07-22T06:34:56;92164.69;;;22.85;81.69
37206;BME280;23099;42.636;23.198;2023-07-22T06:37:23;92168.84;;;22.90;81.83
37206;BME280;23099;42.636;23.198;2023-07-22T06:39:50;92171.28;;;23.01;81.95
37206;BME280;23099;42.636;23.198;2023-07-22T06:42:17;92173.13;;;23.04;83.44
37206;BME280;23099;42.636;23.198;2023-07-22T06:44:43;92170.63;;;23.09;83.91
37206;BME280;23099;42.636;23.198;2023-07-22T06:47:11;92163.66;;;23.08;83.12
37206;BME280;23099;42.636;23.198;2023-07-22T06:49:40;92159.28;;;23.11;82.09
37206;BME280;23099;42.636;23.198;2023-07-22T06:52:07;92159.50;;;23.16;81.81
37206;BME280;23099;42.636;23.198;2023-07-22T06:54:34;92162.47;;;23.22;82.15
37206;BME280;23099;42.636;23.198;2023-07-22T06:57:01;92171.19;;;23.30;82.18
37206;BME280;23099;42.636;23.198;2023-07-22T06:59:28;92159.84;;;23.31;82.32
37206;BME280;23099;42.636;23.198;2023-07-22T07:01:54;92169.34;;;23.39;81.65
37206;BME280;23099;42.636;23.198;2023-07-22T07:04:21;92159.84;;;23.44;81.67
37206;BME280;23099;42.636;23.198;2023-07-22T07:06:49;92153.84;;;23.49;81.90
37206;BME280;23099;42.636;23.198;2023-07-22T07:09:15;92162.59;;;23.56;81.13
37206;BME280;23099;42.636;23.198;2023-07-22T07:11:42;92153.97;;;23.58;81.27
37206;BME280;23099;42.636;23.198;2023-07-22T07:14:09;92150.16;;;23.55;81.12
37206;BME280;23099;42.636;23.198;2023-07-22T07:16:36;92147.53;;;23.65;81.20
37206;BME280;23099;42.636;23.198;2023-07-22T07:19:04;92143.69;;;23.75;80.84
37206;BME280;23099;42.636;23.198;2023-07-22T07:21:31;92151.19;;;23.83;81.31
37206;BME280;23099;42.636;23.198;2023-07-22T07:23:59;92155.25;;;23.91;80.40
37206;BME280;23099;42.636;23.198;2023-07-22T07:26:25;92147.13;;;24.01;79.95
37206;BME280;23099;42.636;23.198;2023-07-22T07:28:52;92137.19;;;24.07;80.83
37206;BME280;23099;42.636;23.198;2023-07-22T07:31:20;92144.69;;;24.15;79.87
37206;BME280;23099;42.636;23.198;2023-07-22T07:33:47;92148.94;;;24.29;78.92
37206;BME280;23099;42.636;23.198;2023-07-22T07:36:14;92141.44;;;24.42;80.15
37206;BME280;23099;42.636;23.198;2023-07-22T07:38:41;92136.69;;;24.55;79.85
37206;BME280;23099;42.636;23.198;2023-07-22T07:41:10;92139.81;;;24.66;79.61
37206;BME280;23099;42.636;23.198;2023-07-22T07:43:38;92134.97;;;24.71;77.40
37206;BME280;23099;42.636;23.198;2023-07-22T07:46:16;92140.38;;;24.83;76.78
37206;BME280;23099;42.636;23.198;2023-07-22T07:48:44;92140.13;;;24.90;76.43
37206;BME280;23099;42.636;23.198;2023-07-22T07:51:12;92155.00;;;24.89;74.96
37206;BME280;23099;42.636;23.198;2023-07-22T07:53:39;92138.34;;;24.96;74.97
37206;BME280;23099;42.636;23.198;2023-07-22T07:56:06;92141.03;;;25.09;75.39
37206;BME280;23099;42.636;23.198;2023-07-22T07:58:34;92146.84;;;25.20;73.71
37206;BME280;23099;42.636;23.198;2023-07-22T08:01:01;92133.97;;;25.30;72.74
37206;BME280;23099;42.636;23.198;2023-07-22T08:03:27;92139.75;;;25.32;73.51
37206;BME280;23099;42.636;23.198;2023-07-22T08:05:55;92133.66;;;25.28;73.52
37206;BME280;23099;42.636;23.198;2023-07-22T08:08:21;92138.44;;;25.46;73.77
37206;BME280;23099;42.636;23.198;2023-07-22T08:10:57;92150.81;;;25.59;73.67
37206;BME280;23099;42.636;23.198;2023-07-22T08:13:24;92156.63;;;25.61;71.73
37206;BME280;23099;42.636;23.198;2023-07-22T08:15:52;92151.03;;;25.74;70.15
37206;BME280;23099;42.636;23.198;2023-07-22T08:18:19;92159.16;;;25.96;65.47
37206;BME280;23099;42.636;23.198;2023-07-22T08:20:46;92165.41;;;26.15;63.95
37206;BME280;23099;42.636;23.198;2023-07-22T08:23:13;92148.59;;;26.34;62.97
37206;BME280;23099;42.636;23.198;2023-07-22T08:25:40;92149.97;;;26.48;62.92
37206;BME280;23099;42.636;23.198;2023-07-22T08:28:09;92153.31;;;26.61;63.25
37206;BME280;23099;42.636;23.198;2023-07-22T08:30:40;92143.41;;;26.73;61.69
37206;BME280;23099;42.636;23.198;2023-07-22T08:33:09;92138.19;;;26.84;61.81
37206;BME280;23099;42.636;23.198;2023-07-22T08:35:37;92147.34;;;26.99;60.05
37206;BME280;23099;42.636;23.198;2023-07-22T08:38:04;92133.78;;;27.05;57.84
37206;BME280;23099;42.636;23.198;2023-07-22T08:40:33;92143.06;;;27.07;53.98
37206;BME280;23099;42.636;23.198;2023-07-22T08:43:05;92137.41;;;27.20;55.81
37206;BME280;23099;42.636;23.198;2023-07-22T08:45:33;92125.47;;;27.32;55.64
37206;BME280;23099;42.636;23.198;2023-07-22T08:48:03;92124.84;;;27.37;53.08
37206;BME280;23099;42.636;23.198;2023-07-22T08:50:36;92122.06;;;27.46;53.56
37206;BME280;23099;42.636;23.198;2023-07-22T08:53:08;92113.03;;;27.55;52.24
37206;BME280;23099;42.636;23.198;2023-07-22T08:55:35;92113.31;;;27.66;52.66
37206;BME280;23099;42.636;23.198;2023-07-22T08:58:06;92108.22;;;27.74;52.48
37206;BME280;23099;42.636;23.198;2023-07-22T09:00:34;92110.66;;;27.81;53.10
37206;BME280;23099;42.636;23.198;2023-07-22T09:03:01;92113.78;;;27.89;49.92
37206;BME280;23099;42.636;23.198;2023-07-22T09:05:28;92123.22;;;27.97;49.57
37206;BME280;23099;42.636;23.198;2023-07-22T09:07:57;92112.63;;;28.04;51.09
37206;BME280;23099;42.636;23.198;2023-07-22T09:10:24;92105.84;;;28.14;49.97
37206;BME280;23099;42.636;23.198;2023-07-22T09:12:53;92114.81;;;28.24;49.35
37206;BME280;23099;42.636;23.198;2023-07-22T09:15:23;92114.28;;;28.35;49.70
37206;BME280;23099;42.636;23.198;2023-07-22T09:17:50;92107.47;;;28.45;48.41
37206;BME280;23099;42.636;23.198;2023-07-22T09:20:20;92108.72;;;28.59;48.60
37206;BME280;23099;42.636;23.198;2023-07-22T09:22:50;92104.69;;;28.69;47.12
37206;BME280;23099;42.636;23.198;2023-07-22T09:25:22;92110.56;;;28.76;45.33
37206;BME280;23099;42.636;23.198;2023-07-22T09:27:51;92105.50;;;28.84;45.30
37206;BME280;23099;42.636;23.198;2023-07-22T09:30:22;92110.78;;;28.88;43.51
37206;BME280;23099;42.636;23.198;2023-07-22T09:32:49;92112.91;;;28.93;45.18
37206;BME280;23099;42.636;23.198;2023-07-22T09:35:17;92120.50;;;28.98;44.74
37206;BME280;23099;42.636;23.198;2023-07-22T09:37:44;92106.81;;;29.03;43.92
37206;BME280;23099;42.636;23.198;2023-07-22T09:40:14;92112.13;;;29.07;44.10
37206;BME280;23099;42.636;23.198;2023-07-22T09:42:45;92109.28;;;29.16;45.21
37206;BME280;23099;42.636;23.198;2023-07-22T09:45:12;92100.19;;;29.25;45.21
37206;BME280;23099;42.636;23.198;2023-07-22T09:47:41;92101.50;;;29.29;44.78
37206;BME280;23099;42.636;23.198;2023-07-22T09:50:13;92106.63;;;29.36;47.07
37206;BME280;23099;42.636;23.198;2023-07-22T09:52:42;92105.78;;;29.45;46.20
37206;BME280;23099;42.636;23.198;2023-07-22T09:55:09;92099.22;;;29.57;45.12
37206;BME280;23099;42.636;23.198;2023-07-22T09:57:40;92102.03;;;29.63;45.37
37206;BME280;23099;42.636;23.198;2023-07-22T10:00:11;92106.47;;;29.75;43.57
37206;BME280;23099;42.636;23.198;2023-07-22T10:02:40;92102.56;;;29.81;44.15
37206;BME280;23099;42.636;23.198;2023-07-22T10:05:12;92102.25;;;29.94;44.86
37206;BME280;23099;42.636;23.198;2023-07-22T10:07:42;92097.59;;;30.00;43.09
37206;BME280;23099;42.636;23.198;2023-07-22T10:10:10;92105.53;;;30.13;43.28
37206;BME280;23099;42.636;23.198;2023-07-22T10:12:37;92105.19;;;30.26;43.39
37206;BME280;23099;42.636;23.198;2023-07-22T10:15:06;92095.13;;;30.43;43.85
37206;BME280;23099;42.636;23.198;2023-07-22T10:17:35;92094.84;;;30.61;44.05
37206;BME280;23099;42.636;23.198;2023-07-22T10:20:02;92093.22;;;30.75;43.34
37206;BME280;23099;42.636;23.198;2023-07-22T10:22:34;92097.25;;;31.00;43.55
37206;BME280;23099;42.636;23.198;2023-07-22T10:25:04;92109.28;;;30.97;40.49
37206;BME280;23099;42.636;23.198;2023-07-22T10:27:31;92095.31;;;31.06;39.93
37206;BME280;23099;42.636;23.198;2023-07-22T10:29:59;92096.78;;;31.27;40.00
37206;BME280;23099;42.636;23.198;2023-07-22T10:32:31;92097.16;;;31.46;39.72
37206;BME280;23099;42.636;23.198;2023-07-22T10:35:00;92088.53;;;31.64;40.80
37206;BME280;23099;42.636;23.198;2023-07-22T10:37:29;92099.22;;;31.82;38.42
37206;BME280;23099;42.636;23.198;2023-07-22T10:39:59;92089.47;;;31.87;36.33
37206;BME280;23099;42.636;23.198;2023-07-22T10:42:28;92076.72;;;32.01;37.84
37206;BME280;23099;42.636;23.198;2023-07-22T10:45:00;92080.06;;;32.16;38.71
37206;BME280;23099;42.636;23.198;2023-07-22T10:47:34;92074.94;;;32.40;38.39
37206;BME280;23099;42.636;23.198;2023-07-22T10:50:09;92069.47;;;32.57;38.95
37206;BME280;23099;42.636;23.198;2023-07-22T10:52:43;92074.75;;;32.66;36.43
37206;BME280;23099;42.636;23.198;2023-07-22T10:55:16;92079.63;;;32.82;36.81
37206;BME280;23099;42.636;23.198;2023-07-22T10:57:53;92076.38;;;32.89;36.33
37206;BME280;23099;42.636;23.198;2023-07-22T11:00:23;92070.34;;;33.08;35.79
37206;BME280;23099;42.636;23.198;2023-07-22T11:03:11;92074.63;;;33.09;33.70
37206;BME280;23099;42.636;23.198;2023-07-22T11:05:57;92083.22;;;33.33;34.17
37206;BME280;23099;42.636;23.198;2023-07-22T11:08:36;92064.84;;;33.47;34.17
37206;BME280;23099;42.636;23.198;2023-07-22T11:11:04;92067.59;;;33.63;34.80
37206;BME280;23099;42.636;23.198;2023-07-22T11:13:37;92068.59;;;33.66;33.32
37206;BME280;23099;42.636;23.198;2023-07-22T11:16:04;92069.63;;;33.74;34.15
37206;BME280;23099;42.636;23.198;2023-07-22T11:18:41;92079.44;;;34.03;33.97
37206;BME280;23099;42.636;23.198;2023-07-22T11:21:12;92069.56;;;34.13;31.75
37206;BME280;23099;42.636;23.198;2023-07-22T11:23:39;92068.31;;;34.09;33.38
37206;BME280;23099;42.636;23.198;2023-07-22T11:26:06;92067.34;;;33.95;32.12
37206;BME280;23099;42.636;23.198;2023-07-22T11:28:33;92066.31;;;34.03;32.11
37206;BME280;23099;42.636;23.198;2023-07-22T11:31:00;92050.63;;;34.28;32.76
37206;BME280;23099;42.636;23.198;2023-07-22T11:33:37;92057.97;;;34.15;32.96
37206;BME280;23099;42.636;23.198;2023-07-22T11:36:05;92062.75;;;34.14;33.62
37206;BME280;23099;42.636;23.198;2023-07-22T11:38:33;92060.53;;;33.62;33.48
37206;BME280;23099;42.636;23.198;2023-07-22T11:41:01;92044.69;;;33.57;32.67
37206;BME280;23099;42.636;23.198;2023-07-22T11:43:28;92052.03;;;33.32;33.98
37206;BME280;23099;42.636;23.198;2023-07-22T11:45:55;92050.00;;;33.27;34.37
37206;BME280;23099;42.636;23.198;2023-07-22T11:48:22;92042.41;;;33.17;34.02
37206;BME280;23099;42.636;23.198;2023-07-22T11:50:48;92048.47;;;33.43;34.65
37206;BME280;23099;42.636;23.198;2023-07-22T11:53:15;92035.59;;;33.74;33.78
37206;BME280;23099;42.636;23.198;2023-07-22T11:55:44;92039.63;;;33.84;32.22
37206;BME280;23099;42.636;23.198;2023-07-22T11:58:10;92028.78;;;33.69;32.75
37206;BME280;23099;42.636;23.198;2023-07-22T12:00:42;92046.69;;;33.74;32.72
37206;BME280;23099;42.636;23.198;2023-07-22T12:03:10;92047.22;;;33.55;33.22
37206;BME280;23099;42.636;23.198;2023-07-22T12:05:36;92054.28;;;33.45;33.44
37206;BME280;23099;42.636;23.198;2023-07-22T12:08:04;92044.22;;;33.31;33.17
37206;BME280;23099;42.636;23.198;2023-07-22T12:10:32;92032.34;;;33.36;33.66
37206;BME280;23099;42.636;23.198;2023-07-22T12:13:01;92039.38;;;33.65;34.62
37206;BME280;23099;42.636;23.198;2023-07-22T12:15:29;92023.75;;;33.84;33.08
37206;BME280;23099;42.636;23.198;2023-07-22T12:17:57;92033.84;;;33.87;33.87
37206;BME280;23099;42.636;23.198;2023-07-22T12:20:25;92031.81;;;33.88;32.35
37206;BME280;23099;42.636;23.198;2023-07-22T12:22:52;92037.13;;;33.80;33.37
37206;BME280;23099;42.636;23.198;2023-07-22T12:25:18;92037.63;;;33.90;33.64
37206;BME280;23099;42.636;23.198;2023-07-22T12:27:45;92025.22;;;34.02;32.51
37206;BME280;23099;42.636;23.198;2023-07-22T12:30:13;92038.09;;;33.94;31.87
37206;BME280;23099;42.636;23.198;2023-07-22T12:32:40;92033.59;;;33.74;32.51
37206;BME280;23099;42.636;23.198;2023-07-22T12:35:08;92020.47;;;33.63;32.63
37206;BME280;23099;42.636;23.198;2023-07-22T12:37:34;92013.69;;;33.53;33.68
37206;BME280;23099;42.636;23.198;2023-07-22T12:40:02;92012.94;;;33.53;33.87
37206;BME280;23099;42.636;23.198;2023-07-22T12:42:33;92005.38;;;33.48;33.09
37206;BME280;23099;42.636;23.198;2023-07-22T12:45:00;92001.84;;;33.53;32.64
37206;BME280;23099;42.636;23.198;2023-07-22T12:47:28;92001.41;;;33.32;32.36
37206;BME280;23099;42.636;23.198;2023-07-22T12:49:57;91992.81;;;33.30;32.54
37206;BME280;23099;42.636;23.198;2023-07-22T12:52:24;91997.34;;;33.39;32.10
37206;BME280;23099;42.636;23.198;2023-07-22T12:54:51;92004.38;;;33.23;32.99